Terminal Aerodrome Forecast
Issued by NWS

Home | Current Version | Previous Version | Text Only | Print | Product List | Glossary On
Versions: 1 2 3 4 5 6 7 8 9 10 11 12 13 14
000
FTUS46 KMTR 060520
TAFSJC
TAF
KSJC 060520Z 0606/0706 30007KT P6SM FEW250
     FM060700 VRB03KT P6SM SCT015 BKN250
      TEMPO 0610/0614 BKN015 OVC250
     FM061400 15004KT P6SM BKN015 OVC250
     FM061800 24011KT P6SM FEW030 SCT250
     FM070300 VRB04KT P6SM FEW030 SCT250=

USA.gov is the U.S. government's official web portal to all federal, state and local government web resources and services.